createdAt,value
2022-09-20T00:01:42.936Z,100121.85
2022-09-20T00:04:11.450Z,100120.88
2022-09-20T00:06:39.855Z,100119.31
2022-09-20T00:09:08.340Z,100118.59
2022-09-20T00:11:37.316Z,100120.25
2022-09-20T00:14:08.983Z,100118.98
2022-09-20T00:16:41.100Z,100120.86
2022-09-20T00:19:18.973Z,100119.28
2022-09-20T00:21:47.640Z,100121.13
2022-09-20T00:24:16.306Z,100118.31
2022-09-20T00:26:44.645Z,100120.23
2022-09-20T00:29:13.479Z,100122.65
2022-09-20T00:31:43.217Z,100121.80
2022-09-20T00:34:31.772Z,100121.86
2022-09-20T00:37:00.131Z,100117.39
2022-09-20T00:39:28.477Z,100117.74
2022-09-20T00:41:56.851Z,100112.63
2022-09-20T00:44:45.506Z,100110.81
2022-09-20T00:47:37.006Z,100108.27
2022-09-20T00:50:23.802Z,100104.96
2022-09-20T00:53:00.147Z,100101.36
2022-09-20T00:55:29.170Z,100099.14
2022-09-20T00:57:58.955Z,100096.81
2022-09-20T01:00:27.867Z,100098.65
2022-09-20T01:03:06.282Z,100098.77
2022-09-20T01:05:35.657Z,100093.09
2022-09-20T01:08:04.678Z,100093.54
2022-09-20T01:10:33.667Z,100092.73
2022-09-20T01:13:02.073Z,100091.39
2022-09-20T01:15:32.658Z,100093.88
2022-09-20T01:18:03.194Z,100094.58
2022-09-20T01:20:37.077Z,100096.34
2022-09-20T01:23:45.764Z,100094.98
2022-09-20T01:26:29.347Z,100096.77
2022-09-20T01:29:16.690Z,100094.58
2022-09-20T01:31:53.575Z,100087.45
2022-09-20T01:34:38.132Z,100078.20
2022-09-20T01:37:11.933Z,100072.65
2022-09-20T01:39:47.976Z,100072.94
2022-09-20T01:42:16.915Z,100076.20
2022-09-20T01:45:19.167Z,100075.59
2022-09-20T01:48:14.801Z,100070.11
2022-09-20T01:51:40.846Z,100066.04
2022-09-20T01:54:21.014Z,100068.27
2022-09-20T01:56:54.231Z,100068.02
2022-09-20T01:59:44.966Z,100065.80
2022-09-20T02:03:00.839Z,100064.10
2022-09-20T02:05:56.784Z,100065.89
2022-09-20T02:08:44.282Z,100065.20
2022-09-20T02:11:19.560Z,100066.95
2022-09-20T02:13:57.001Z,100068.91
2022-09-20T02:16:53.007Z,100071.35
2022-09-20T02:19:51.096Z,100068.97
2022-09-20T02:22:56.764Z,100074.97
2022-09-20T02:26:11.158Z,100080.77
2022-09-20T02:29:01.324Z,100081.73
2022-09-20T02:31:41.899Z,100081.92
2022-09-20T02:35:06.985Z,100080.36
2022-09-20T02:37:55.652Z,100083.27
2022-09-20T02:40:32.912Z,100077.81
2022-09-20T02:43:04.242Z,100078.48
2022-09-20T02:45:51.330Z,100070.01
2022-09-20T02:48:27.901Z,100065.54
2022-09-20T02:51:24.787Z,100068.77
2022-09-20T02:54:21.705Z,100071.05
2022-09-20T02:57:15.937Z,100090.94
2022-09-20T02:59:56.209Z,100100.94
2022-09-20T03:02:36.549Z,100099.05
2022-09-20T03:05:24.293Z,100102.71
2022-09-20T03:08:07.672Z,100096.62
2022-09-20T03:10:43.883Z,100098.92
2022-09-20T03:13:36.543Z,100094.25
2022-09-20T03:16:07.803Z,100096.75
2022-09-20T03:18:59.521Z,100098.17
2022-09-20T03:21:58.054Z,100101.00
2022-09-20T03:25:21.631Z,100102.64
2022-09-20T03:28:24.712Z,100101.09
2022-09-20T03:31:39.412Z,100108.49
2022-09-20T03:34:48.242Z,100112.89
2022-09-20T03:37:31.350Z,100100.99
2022-09-20T03:40:20.827Z,100116.24
2022-09-20T03:42:52.960Z,100119.95
2022-09-20T03:45:55.393Z,100121.73
2022-09-20T03:48:51.518Z,100124.36
2022-09-20T03:51:33.857Z,100130.55
2022-09-20T03:54:54.614Z,100126.24
2022-09-20T03:58:06.806Z,100128.42
2022-09-20T04:01:10.048Z,100123.95
2022-09-20T04:03:54.135Z,100125.95
2022-09-20T04:07:13.139Z,100130.05
2022-09-20T04:10:19.406Z,100131.19
2022-09-20T04:12:59.687Z,100132.47
2022-09-20T04:15:38.525Z,100132.89
2022-09-20T04:18:24.815Z,100133.82
2022-09-20T04:21:03.373Z,100139.13
2022-09-20T04:23:53.486Z,100142.15
2022-09-20T04:26:28.731Z,100143.58
2022-09-20T04:29:09.873Z,100146.05
2022-09-20T04:31:57.227Z,100142.45
2022-09-20T04:34:54.289Z,100144.73
2022-09-20T04:37:38.531Z,100146.15
2022-09-20T04:40:26.543Z,100145.79
2022-09-20T04:43:19.083Z,100148.63
2022-09-20T04:46:20.108Z,100153.18
2022-09-20T04:48:54.795Z,100158.80
2022-09-20T04:51:54.455Z,100159.83
2022-09-20T04:54:53.545Z,100161.38
2022-09-20T04:57:54.031Z,100166.95
2022-09-20T05:00:25.141Z,100167.42
2022-09-20T05:03:16.890Z,100169.46
2022-09-20T05:06:15.801Z,100168.00
2022-09-20T05:09:00.644Z,100170.75
2022-09-20T05:11:49.943Z,100174.33
2022-09-20T05:14:44.097Z,100169.36
2022-09-20T05:17:25.658Z,100172.95
2022-09-20T05:20:07.636Z,100174.96
2022-09-20T05:23:09.391Z,100173.83
2022-09-20T05:26:11.841Z,100170.26
2022-09-20T05:29:01.259Z,100173.82
2022-09-20T05:31:53.126Z,100177.23
2022-09-20T05:34:52.474Z,100177.65
2022-09-20T05:38:01.280Z,100177.84
2022-09-20T05:41:37.172Z,100180.81
2022-09-20T05:44:37.319Z,100177.16
2022-09-20T05:47:35.075Z,100181.30
2022-09-20T05:50:34.667Z,100184.94
2022-09-20T05:53:40.121Z,100186.07
2022-09-20T05:56:49.978Z,100181.61
2022-09-20T05:59:42.856Z,100181.15
2022-09-20T06:02:41.449Z,100188.20
2022-09-20T06:05:47.313Z,100190.00
2022-09-20T06:09:00.441Z,100195.45
2022-09-20T06:12:24.851Z,100195.34
2022-09-20T06:15:29.180Z,100196.85
2022-09-20T06:18:31.880Z,100197.11
2022-09-20T06:21:28.384Z,100200.12
2022-09-20T06:24:00.513Z,100201.31
2022-09-20T06:26:34.037Z,100197.28
2022-09-20T06:29:11.785Z,100197.42
2022-09-20T06:31:40.156Z,100200.05
2022-09-20T06:34:14.776Z,100197.85
2022-09-20T06:37:13.167Z,100196.96
2022-09-20T06:40:15.877Z,100201.48
2022-09-20T06:42:44.791Z,100201.13
2022-09-20T06:45:13.269Z,100199.40
2022-09-20T06:47:42.094Z,100205.02
2022-09-20T06:50:17.539Z,100207.05
2022-09-20T06:52:46.763Z,100206.16
2022-09-20T06:55:29.567Z,100208.48
2022-09-20T06:57:58.584Z,100210.20
2022-09-20T07:00:26.879Z,100208.17
2022-09-20T07:02:56.888Z,100208.07
2022-09-20T07:05:26.744Z,100203.56
2022-09-20T07:07:59.369Z,100207.92
2022-09-20T07:10:28.847Z,100211.42
2022-09-20T07:13:02.726Z,100209.71
2022-09-20T07:15:35.175Z,100204.56
2022-09-20T07:18:03.636Z,100212.08
2022-09-20T07:20:32.045Z,100213.60
2022-09-20T07:23:00.454Z,100215.16
2022-09-20T07:25:28.874Z,100215.06
2022-09-20T07:27:57.756Z,100218.25
2022-09-20T07:30:26.320Z,100224.19
2022-09-20T07:32:55.057Z,100219.40
2022-09-20T07:35:24.243Z,100220.82
2022-09-20T07:37:58.930Z,100223.48
2022-09-20T07:40:27.496Z,100218.65
2022-09-20T07:42:58.109Z,100221.06
2022-09-20T07:45:26.412Z,100221.33
2022-09-20T07:47:54.705Z,100213.25
2022-09-20T07:50:22.932Z,100215.31
2022-09-20T07:52:51.489Z,100214.35
2022-09-20T07:55:19.819Z,100212.20
2022-09-20T07:57:48.178Z,100213.45
2022-09-20T08:00:16.609Z,100211.81
2022-09-20T08:02:45.588Z,100210.39
2022-09-20T08:05:13.895Z,100212.52
2022-09-20T08:07:42.214Z,100211.69
2022-09-20T08:10:10.586Z,100208.46
2022-09-20T08:15:27.200Z,100214.52
2022-09-20T08:17:55.456Z,100214.19
2022-09-20T08:20:23.727Z,100215.42
2022-09-20T08:23:19.416Z,100211.73
2022-09-20T08:25:42.867Z,100211.05
2022-09-20T08:28:11.181Z,100206.87
2022-09-20T08:30:39.476Z,100207.34
2022-09-20T08:33:07.790Z,100205.21
2022-09-20T08:35:38.238Z,100206.21
2022-09-20T08:41:12.796Z,100201.69
2022-09-20T08:44:17.850Z,100203.58
2022-09-20T08:46:56.485Z,100200.76
2022-09-20T08:49:29.913Z,100199.88
2022-09-20T08:51:59.537Z,100196.65
2022-09-20T08:54:32.771Z,100192.91
2022-09-20T08:57:13.028Z,100190.52
2022-09-20T08:59:41.844Z,100182.01
2022-09-20T09:02:20.295Z,100180.16
2022-09-20T09:04:51.673Z,100181.52
2022-09-20T09:07:23.765Z,100181.04
2022-09-20T09:09:54.214Z,100179.23
2022-09-20T09:12:30.204Z,100179.77
2022-09-20T09:15:19.709Z,100179.88
2022-09-20T09:17:47.942Z,100182.16
2022-09-20T09:20:22.648Z,100178.98
2022-09-20T09:23:03.488Z,100180.02
2022-09-20T09:25:39.842Z,100178.81
2022-09-20T09:28:07.960Z,100177.05
2022-09-20T09:30:39.866Z,100176.63
2022-09-20T09:33:20.097Z,100174.20
2022-09-20T09:35:59.347Z,100171.43
2022-09-20T09:38:40.207Z,100167.24
2022-09-20T09:41:35.419Z,100169.50
2022-09-20T09:44:27.892Z,100176.56
2022-09-20T09:46:58.102Z,100171.23
2022-09-20T09:49:34.242Z,100179.81
2022-09-20T09:52:25.798Z,100169.20
2022-09-20T09:55:03.636Z,100171.98
2022-09-20T09:57:59.245Z,100173.02
2022-09-20T10:00:29.910Z,100167.50
2022-09-20T10:03:19.733Z,100164.30
2022-09-20T10:06:55.811Z,100168.84
2022-09-20T10:09:45.437Z,100174.92
2022-09-20T10:12:26.440Z,100171.58
2022-09-20T10:15:32.668Z,100171.05
2022-09-20T10:18:09.934Z,100170.38
2022-09-20T10:20:57.721Z,100172.70
2022-09-20T10:24:04.481Z,100172.58
2022-09-20T10:26:45.315Z,100171.97
2022-09-20T10:29:34.970Z,100165.64
2022-09-20T10:32:56.104Z,100155.54
2022-09-20T10:35:52.573Z,100173.62
2022-09-20T10:38:36.022Z,100169.83
2022-09-20T10:42:00.418Z,100166.72
2022-09-20T10:44:46.747Z,100158.85
2022-09-20T10:47:24.527Z,100163.05
2022-09-20T10:50:20.421Z,100157.01
2022-09-20T10:53:10.308Z,100152.81
2022-09-20T10:56:13.448Z,100160.22
2022-09-20T10:59:08.908Z,100157.86
2022-09-20T11:01:55.339Z,100159.52
2022-09-20T11:04:54.226Z,100160.83
2022-09-20T11:07:56.407Z,100153.48
2022-09-20T11:11:08.817Z,100157.89
2022-09-20T11:13:53.226Z,100159.64
2022-09-20T11:16:33.395Z,100162.15
2022-09-20T11:19:23.653Z,100165.00
2022-09-20T11:22:06.196Z,100162.83
2022-09-20T11:24:47.988Z,100163.05
2022-09-20T11:27:34.167Z,100157.96
2022-09-20T11:30:22.118Z,100155.56
2022-09-20T11:33:11.702Z,100155.83
2022-09-20T11:35:53.337Z,100155.54
2022-09-20T11:38:53.422Z,100156.21
2022-09-20T11:41:30.561Z,100157.64
2022-09-20T11:44:12.136Z,100165.56
2022-09-20T11:47:36.562Z,100160.55
2022-09-20T11:50:44.440Z,100163.92
2022-09-20T11:53:55.676Z,100165.38
2022-09-20T11:56:31.152Z,100164.49
2022-09-20T11:59:03.554Z,100169.13
2022-09-20T12:01:39.229Z,100166.31
2022-09-20T12:04:38.999Z,100167.17
2022-09-20T12:07:43.002Z,100168.67
2022-09-20T12:10:25.364Z,100164.73
2022-09-20T12:13:15.760Z,100170.23
2022-09-20T12:15:44.910Z,100171.85
2022-09-20T12:18:46.103Z,100169.35
2022-09-20T12:21:18.482Z,100168.64
2022-09-20T12:24:01.765Z,100168.75
2022-09-20T12:26:42.749Z,100164.97
2022-09-20T12:29:34.354Z,100164.04
2022-09-20T12:32:24.090Z,100159.65
2022-09-20T12:34:52.638Z,100156.31
2022-09-20T12:37:26.457Z,100151.09
2022-09-20T12:39:56.310Z,100153.89
2022-09-20T12:42:32.538Z,100149.34
2022-09-20T12:45:08.116Z,100150.30
2022-09-20T12:47:38.440Z,100145.58
2022-09-20T12:50:34.901Z,100144.90
2022-09-20T12:53:12.282Z,100150.20
2022-09-20T12:55:56.388Z,100147.60
2022-09-20T12:58:47.158Z,100145.22
2022-09-20T13:01:15.466Z,100145.05
2022-09-20T13:03:50.940Z,100144.98
2022-09-20T13:06:19.345Z,100134.89
2022-09-20T13:09:04.455Z,100137.48
2022-09-20T13:11:54.320Z,100138.94
2022-09-20T13:14:30.000Z,100144.92
2022-09-20T13:17:13.814Z,100151.71
2022-09-20T13:19:50.889Z,100150.42
2022-09-20T13:22:38.021Z,100151.85
2022-09-20T13:25:08.232Z,100150.48
2022-09-20T13:27:49.808Z,100154.03
2022-09-20T13:30:32.876Z,100151.88
2022-09-20T13:33:25.119Z,100145.67
2022-09-20T13:35:57.662Z,100147.20
2022-09-20T13:38:32.005Z,100147.05
2022-09-20T13:41:11.048Z,100148.23
2022-09-20T13:43:50.887Z,100151.05
2022-09-20T13:46:24.733Z,100141.40
2022-09-20T13:49:23.890Z,100142.74
2022-09-20T13:51:52.378Z,100149.00
2022-09-20T13:54:31.515Z,100149.98
2022-09-20T13:57:04.372Z,100151.83
2022-09-20T13:59:45.623Z,100149.80
2022-09-20T14:02:34.501Z,100150.26
2022-09-20T14:05:07.435Z,100148.29
2022-09-20T14:07:36.992Z,100148.44
2022-09-20T14:10:33.168Z,100152.75
2022-09-20T14:13:06.985Z,100154.92
2022-09-20T14:15:44.430Z,100157.63
2022-09-20T14:18:18.390Z,100156.93
2022-09-20T14:20:47.898Z,100154.20
2022-09-20T14:23:24.134Z,100154.21
2022-09-20T14:26:36.446Z,100161.33
2022-09-20T14:29:47.735Z,100166.22
2022-09-20T14:32:19.101Z,100165.15
2022-09-20T14:35:16.293Z,100167.94
2022-09-20T14:38:02.853Z,100169.08
2022-09-20T14:40:47.133Z,100169.65
2022-09-20T14:43:35.178Z,100165.65
2022-09-20T14:46:09.629Z,100166.45
2022-09-20T14:48:43.283Z,100172.68
2022-09-20T14:51:18.936Z,100173.23
2022-09-20T14:54:11.106Z,100175.48
2022-09-20T14:56:49.414Z,100180.16
2022-09-20T14:59:17.709Z,100181.80
2022-09-20T15:02:03.887Z,100177.36
2022-09-20T15:04:35.504Z,100177.65
2022-09-20T15:07:10.963Z,100174.45
2022-09-20T15:09:39.422Z,100173.98
2022-09-20T15:12:07.984Z,100172.81
2022-09-20T15:14:38.009Z,100173.08
2022-09-20T15:17:09.543Z,100172.17
2022-09-20T15:19:40.627Z,100172.35
2022-09-20T15:22:11.859Z,100174.56
2022-09-20T15:24:42.040Z,100175.47
2022-09-20T15:27:14.845Z,100173.63
2022-09-20T15:29:43.253Z,100177.15
2022-09-20T15:32:11.905Z,100180.04
2022-09-20T15:34:40.335Z,100182.98
2022-09-20T15:37:08.954Z,100180.65
2022-09-20T15:39:37.598Z,100183.41
2022-09-20T15:42:07.046Z,100182.27
2022-09-20T15:44:35.493Z,100183.48
2022-09-20T15:47:04.756Z,100182.93
2022-09-20T15:49:33.801Z,100182.19
2022-09-20T15:52:02.628Z,100185.21
2022-09-20T15:54:31.276Z,100184.04
2022-09-20T15:57:00.385Z,100185.27
2022-09-20T15:59:29.709Z,100188.35
2022-09-20T16:01:59.762Z,100188.23
2022-09-20T16:04:28.139Z,100190.54
2022-09-20T16:06:56.776Z,100191.92
2022-09-20T16:09:26.489Z,100191.26
2022-09-20T16:11:58.970Z,100188.98
2022-09-20T16:14:28.012Z,100192.15
2022-09-20T16:16:58.691Z,100192.08
2022-09-20T16:19:27.339Z,100198.96
2022-09-20T16:21:58.977Z,100201.45
2022-09-20T16:24:34.787Z,100204.27
2022-09-20T16:27:06.353Z,100208.44
2022-09-20T16:29:36.147Z,100213.88
2022-09-20T16:32:05.545Z,100214.34
2022-09-20T16:34:36.567Z,100217.19
2022-09-20T16:37:17.077Z,100219.70
2022-09-20T16:39:45.682Z,100225.89
2022-09-20T16:42:14.025Z,100221.61
2022-09-20T16:44:43.296Z,100225.15
2022-09-20T16:47:23.265Z,100228.05
2022-09-20T16:49:53.338Z,100230.63
2022-09-20T16:52:21.753Z,100236.89
2022-09-20T16:54:50.477Z,100239.08
2022-09-20T16:57:18.991Z,100241.91
2022-09-20T16:59:48.220Z,100246.33
2022-09-20T17:02:16.680Z,100246.92
2022-09-20T17:04:45.277Z,100249.51
2022-09-20T17:07:16.530Z,100251.52
2022-09-20T17:09:44.947Z,100250.44
2022-09-20T17:12:15.084Z,100251.77
2022-09-20T17:14:44.268Z,100255.23
2022-09-20T17:17:13.327Z,100257.64
2022-09-20T17:19:41.694Z,100258.26
2022-09-20T17:22:10.134Z,100259.57
2022-09-20T17:24:39.820Z,100261.86
2022-09-20T17:27:08.968Z,100261.84
2022-09-20T17:29:37.314Z,100267.89
2022-09-20T17:32:05.923Z,100274.17
2022-09-20T17:34:34.458Z,100273.55
2022-09-20T17:39:48.290Z,100277.24
2022-09-20T17:42:17.549Z,100278.53
2022-09-20T17:44:45.940Z,100279.63
2022-09-20T17:47:14.537Z,100280.41
2022-09-20T17:49:43.445Z,100283.83
2022-09-20T17:52:11.831Z,100280.77
2022-09-20T17:54:40.320Z,100283.69
2022-09-20T17:57:09.429Z,100272.94
2022-09-20T17:59:37.877Z,100283.55
2022-09-20T18:02:06.329Z,100292.30
2022-09-20T18:04:35.068Z,100292.46
2022-09-20T18:07:04.590Z,100296.96
2022-09-20T18:09:33.052Z,100303.55
2022-09-20T18:12:02.273Z,100304.65
2022-09-20T18:14:32.776Z,100304.55
2022-09-20T18:17:03.825Z,100304.94
2022-09-20T18:19:35.828Z,100312.33
2022-09-20T18:22:04.432Z,100314.97
2022-09-20T18:24:32.843Z,100318.48
2022-09-20T18:27:01.337Z,100316.38
2022-09-20T18:29:33.553Z,100317.48
2022-09-20T18:32:02.513Z,100320.98
2022-09-20T18:34:33.585Z,100322.95
2022-09-20T18:37:03.991Z,100321.56
2022-09-20T18:39:34.994Z,100330.17
2022-09-20T18:42:04.417Z,100327.42
2022-09-20T18:44:34.452Z,100327.13
2022-09-20T18:47:05.414Z,100332.30
2022-09-20T18:49:34.585Z,100330.22
2022-09-20T18:52:03.910Z,100328.52
2022-09-20T18:54:33.494Z,100328.70
2022-09-20T18:57:02.754Z,100327.98
2022-09-20T18:59:31.347Z,100337.41
2022-09-20T19:02:45.313Z,100335.64
2022-09-20T19:05:28.768Z,100339.30
2022-09-20T19:08:34.453Z,100338.76
2022-09-20T19:11:12.747Z,100336.13
2022-09-20T19:13:53.382Z,100337.35
2022-09-20T19:16:30.804Z,100336.15
2022-09-20T19:19:46.886Z,100337.20
2022-09-20T19:22:48.955Z,100330.06
2022-09-20T19:25:43.555Z,100348.20
2022-09-20T19:28:14.693Z,100351.45
2022-09-20T19:30:43.417Z,100353.08
2022-09-20T19:33:18.300Z,100352.61
2022-09-20T19:35:51.538Z,100354.09
2022-09-20T19:38:22.927Z,100355.21
2022-09-20T19:41:53.003Z,100355.77
2022-09-20T19:44:43.698Z,100358.14
2022-09-20T19:47:42.466Z,100362.17
2022-09-20T19:50:27.993Z,100359.53
2022-09-20T19:52:56.914Z,100362.81
2022-09-20T19:55:26.049Z,100363.47
2022-09-20T19:57:54.780Z,100365.23
2022-09-20T20:00:23.910Z,100365.05
2022-09-20T20:02:53.127Z,100366.64
2022-09-20T20:05:27.679Z,100365.77
2022-09-20T20:08:14.022Z,100363.46
2022-09-20T20:11:09.526Z,100367.66
2022-09-20T20:14:07.278Z,100368.86
2022-09-20T20:17:06.374Z,100373.05
2022-09-20T20:20:33.926Z,100371.87
2022-09-20T20:23:42.788Z,100362.48
2022-09-20T20:26:25.691Z,100377.11
2022-09-20T20:28:54.626Z,100379.96
2022-09-20T20:31:23.221Z,100375.47
2022-09-20T20:33:51.892Z,100377.84
2022-09-20T20:36:20.443Z,100379.63
2022-09-20T20:38:53.345Z,100382.15
2022-09-20T20:41:23.804Z,100382.76
2022-09-20T20:43:56.421Z,100382.27
2022-09-20T20:46:25.924Z,100380.59
2022-09-20T20:48:54.340Z,100387.82
2022-09-20T20:51:23.070Z,100387.48
2022-09-20T20:53:54.033Z,100388.20
2022-09-20T20:56:29.918Z,100389.05
2022-09-20T20:59:00.641Z,100389.02
2022-09-20T21:01:44.814Z,100388.60
2022-09-20T21:04:13.799Z,100388.20
2022-09-20T21:06:42.579Z,100387.94
2022-09-20T21:09:11.730Z,100384.52
2022-09-20T21:11:44.563Z,100379.82
2022-09-20T21:14:13.160Z,100380.63
2022-09-20T21:16:43.555Z,100381.05
2022-09-20T21:19:15.653Z,100384.45
2022-09-20T21:21:46.513Z,100384.02
2022-09-20T21:24:17.523Z,100381.64
2022-09-20T21:26:46.674Z,100385.89
2022-09-20T21:29:16.729Z,100386.98
2022-09-20T21:31:47.982Z,100385.23
2022-09-20T21:34:16.892Z,100384.73
2022-09-20T21:36:45.304Z,100387.20
2022-09-20T21:39:14.020Z,100387.38
2022-09-20T21:41:42.437Z,100390.02
2022-09-20T21:44:11.183Z,100389.27
2022-09-20T21:46:41.778Z,100386.93
2022-09-20T21:49:12.391Z,100387.08
2022-09-20T21:51:42.757Z,100385.98
2022-09-20T21:54:11.624Z,100385.94
2022-09-20T21:56:41.368Z,100385.20
2022-09-20T21:59:09.969Z,100385.30
2022-09-20T22:01:41.423Z,100388.06
2022-09-20T22:04:12.622Z,100391.32
2022-09-20T22:06:45.391Z,100392.31
2022-09-20T22:09:18.158Z,100395.45
2022-09-20T22:11:49.055Z,100399.55
2022-09-20T22:14:19.821Z,100396.49
2022-09-20T22:16:51.356Z,100402.72
2022-09-20T22:19:21.599Z,100400.50
2022-09-20T22:21:51.487Z,100400.02
2022-09-20T22:24:19.868Z,100400.07
2022-09-20T22:26:51.009Z,100397.15
2022-09-20T22:29:19.785Z,100397.53
2022-09-20T22:31:50.317Z,100399.33
2022-09-20T22:34:24.527Z,100395.33
2022-09-20T22:36:53.931Z,100391.08
2022-09-20T22:39:22.334Z,100394.64
2022-09-20T22:41:51.532Z,100395.14
2022-09-20T22:44:19.854Z,100394.75
2022-09-20T22:46:48.140Z,100396.48
2022-09-20T22:49:16.767Z,100394.89
2022-09-20T22:51:45.103Z,100394.05
2022-09-20T22:54:13.452Z,100392.17
2022-09-20T22:56:42.570Z,100396.64
2022-09-20T22:59:14.890Z,100397.59
2022-09-20T23:01:48.224Z,100401.02
2022-09-20T23:04:19.949Z,100397.60
2022-09-20T23:06:57.000Z,100396.30
2022-09-20T23:09:29.990Z,100394.33
2022-09-20T23:11:58.617Z,100395.48
2022-09-20T23:14:27.116Z,100394.88
2022-09-20T23:16:55.465Z,100398.63
2022-09-20T23:19:24.015Z,100401.01
2022-09-20T23:21:52.371Z,100396.44
2022-09-20T23:24:20.713Z,100392.25
2022-09-20T23:26:49.099Z,100390.11
2022-09-20T23:29:17.813Z,100397.37
2022-09-20T23:31:47.938Z,100404.60
2022-09-20T23:34:17.965Z,100405.55
2022-09-20T23:36:47.154Z,100404.23
2022-09-20T23:39:15.973Z,100405.01
2022-09-20T23:41:49.883Z,100406.10
2022-09-20T23:44:20.019Z,100408.92
2022-09-20T23:46:48.406Z,100402.29
2022-09-20T23:49:16.752Z,100402.48
2022-09-20T23:51:45.101Z,100401.63
2022-09-20T23:54:13.458Z,100399.55
2022-09-20T23:56:42.986Z,100395.59
2022-09-20T23:59:11.342Z,100385.09
